createdAt,value
2023-01-29T00:02:05.720Z,24.77
2023-01-29T00:04:34.683Z,21.97
2023-01-29T00:07:03.242Z,22.70
2023-01-29T00:09:33.323Z,18.43
2023-01-29T00:12:01.956Z,20.33
2023-01-29T00:14:30.803Z,20.83
2023-01-29T00:16:59.401Z,20.80
2023-01-29T00:19:27.836Z,21.33
2023-01-29T00:21:58.223Z,20.23
2023-01-29T00:24:26.758Z,24.80
2023-01-29T00:26:56.716Z,20.70
2023-01-29T00:29:25.142Z,25.47
2023-01-29T00:31:53.616Z,20.03
2023-01-29T00:34:23.527Z,20.33
2023-01-29T00:36:51.933Z,20.63
2023-01-29T00:39:33.612Z,22.67
2023-01-29T00:42:32.269Z,19.87
2023-01-29T00:45:00.685Z,19.83
2023-01-29T00:47:33.556Z,18.53
2023-01-29T00:50:02.387Z,24.37
2023-01-29T00:52:30.881Z,24.20
2023-01-29T00:54:59.913Z,18.60
2023-01-29T00:57:30.983Z,18.37
2023-01-29T00:59:59.454Z,20.13
2023-01-29T01:02:46.804Z,19.53
2023-01-29T01:05:18.783Z,20.43
2023-01-29T01:07:47.524Z,29.67
2023-01-29T01:10:22.219Z,17.93
2023-01-29T01:12:53.564Z,21.90
2023-01-29T01:15:22.353Z,24.07
2023-01-29T01:17:53.927Z,21.17
2023-01-29T01:20:22.407Z,22.07
2023-01-29T01:22:51.138Z,25.43
2023-01-29T01:25:19.978Z,25.10
2023-01-29T01:27:48.523Z,17.27
2023-01-29T01:30:18.846Z,22.83
2023-01-29T01:32:47.608Z,22.53
2023-01-29T01:35:17.106Z,21.50
2023-01-29T01:37:45.579Z,23.90
2023-01-29T01:40:18.045Z,25.10
2023-01-29T01:42:49.542Z,22.47
2023-01-29T01:45:24.307Z,19.53
2023-01-29T01:47:54.457Z,24.50
2023-01-29T01:50:24.864Z,19.20
2023-01-29T01:52:55.367Z,21.07
2023-01-29T01:55:27.209Z,20.80
2023-01-29T01:57:58.824Z,22.57
2023-01-29T02:00:29.003Z,23.20
2023-01-29T02:03:15.304Z,19.87
2023-01-29T02:06:01.829Z,24.10
2023-01-29T02:08:51.292Z,28.07
2023-01-29T02:11:20.097Z,29.37
2023-01-29T02:13:53.791Z,21.40
2023-01-29T02:16:24.619Z,23.03
2023-01-29T02:18:53.598Z,26.00
2023-01-29T02:21:25.391Z,26.27
2023-01-29T02:24:12.980Z,22.70
2023-01-29T02:26:46.540Z,23.27
2023-01-29T02:29:27.354Z,27.00
2023-01-29T02:32:04.752Z,17.20
2023-01-29T02:34:56.509Z,22.20
2023-01-29T02:37:29.063Z,24.77
2023-01-29T02:40:01.808Z,14.50
2023-01-29T02:42:36.005Z,21.43
2023-01-29T02:45:12.413Z,24.73
2023-01-29T02:47:44.179Z,25.30
2023-01-29T02:50:17.859Z,22.57
2023-01-29T02:52:50.878Z,20.83
2023-01-29T02:55:22.754Z,17.93
2023-01-29T02:57:53.408Z,23.63
2023-01-29T03:00:25.974Z,23.00
2023-01-29T03:02:57.202Z,23.50
2023-01-29T03:05:29.822Z,24.43
2023-01-29T03:08:00.191Z,20.70
2023-01-29T03:10:33.811Z,24.17
2023-01-29T03:13:04.421Z,23.83
2023-01-29T03:15:39.250Z,21.53
2023-01-29T03:18:10.400Z,23.00
2023-01-29T03:20:48.401Z,24.17
2023-01-29T03:23:18.759Z,25.13
2023-01-29T03:26:05.222Z,22.27
2023-01-29T03:28:51.948Z,30.03
2023-01-29T03:31:39.566Z,22.07
2023-01-29T03:34:10.289Z,21.23
2023-01-29T03:36:45.546Z,23.57
2023-01-29T03:39:15.081Z,27.33
2023-01-29T03:41:47.847Z,22.73
2023-01-29T03:44:18.255Z,29.30
2023-01-29T03:46:52.580Z,22.40
2023-01-29T03:49:23.403Z,27.47
2023-01-29T03:51:55.754Z,21.37
2023-01-29T03:54:27.925Z,24.23
2023-01-29T03:56:59.607Z,23.80
2023-01-29T03:59:46.378Z,23.13
2023-01-29T04:02:19.364Z,26.43
2023-01-29T04:04:52.020Z,29.03
2023-01-29T04:07:24.663Z,22.80
2023-01-29T04:09:56.466Z,21.83
2023-01-29T04:12:28.597Z,24.73
2023-01-29T04:14:58.803Z,27.63
2023-01-29T04:17:32.971Z,23.07
2023-01-29T04:20:02.540Z,23.13
2023-01-29T04:22:34.095Z,28.57
2023-01-29T04:25:08.612Z,27.57
2023-01-29T04:27:45.156Z,31.80
2023-01-29T04:30:18.744Z,29.03
2023-01-29T04:32:57.863Z,22.87
2023-01-29T04:35:30.147Z,21.70
2023-01-29T04:38:03.465Z,30.73
2023-01-29T04:40:35.183Z,23.13
2023-01-29T04:43:05.711Z,29.27
2023-01-29T04:45:39.138Z,26.97
2023-01-29T04:48:13.284Z,29.87
2023-01-29T04:50:43.592Z,25.37
2023-01-29T04:53:15.344Z,29.43
2023-01-29T04:55:45.746Z,29.83
2023-01-29T04:58:16.604Z,26.13
2023-01-29T05:00:46.484Z,27.40
2023-01-29T05:03:17.411Z,26.00
2023-01-29T05:05:47.503Z,28.63
2023-01-29T05:08:17.815Z,29.23
2023-01-29T05:10:47.345Z,30.60
2023-01-29T05:13:16.645Z,27.00
2023-01-29T05:15:47.284Z,31.07
2023-01-29T05:18:17.689Z,26.40
2023-01-29T05:20:46.667Z,32.80
2023-01-29T05:23:17.724Z,26.60
2023-01-29T05:25:46.634Z,22.77
2023-01-29T05:28:17.078Z,35.60
2023-01-29T05:30:46.480Z,33.73
2023-01-29T05:33:16.251Z,26.20
2023-01-29T05:35:46.737Z,26.53
2023-01-29T05:38:15.419Z,29.07
2023-01-29T05:40:44.134Z,33.30
2023-01-29T05:43:17.165Z,29.37
2023-01-29T05:45:45.958Z,25.53
2023-01-29T05:48:14.581Z,33.70
2023-01-29T05:50:43.303Z,37.97
2023-01-29T05:53:13.300Z,31.27
2023-01-29T05:55:41.745Z,32.20
2023-01-29T05:58:10.509Z,28.07
2023-01-29T06:00:39.106Z,33.00
2023-01-29T06:03:07.853Z,36.13
2023-01-29T06:05:40.037Z,26.80
2023-01-29T06:08:09.601Z,37.27
2023-01-29T06:10:39.478Z,42.40
2023-01-29T06:13:08.181Z,23.40
2023-01-29T06:15:37.323Z,32.97
2023-01-29T06:18:06.346Z,33.20
2023-01-29T06:20:38.673Z,29.03
2023-01-29T06:23:07.277Z,32.37
2023-01-29T06:25:39.289Z,34.83
2023-01-29T06:28:07.719Z,33.90
2023-01-29T06:30:36.307Z,34.43
2023-01-29T06:33:04.797Z,37.97
2023-01-29T06:35:33.469Z,31.67
2023-01-29T06:38:02.261Z,39.77
2023-01-29T06:40:31.213Z,39.93
2023-01-29T06:43:02.244Z,42.73
2023-01-29T06:45:30.810Z,31.53
2023-01-29T06:48:01.320Z,39.97
2023-01-29T06:50:29.998Z,38.80
2023-01-29T06:52:58.453Z,34.10
2023-01-29T06:55:26.932Z,35.80
2023-01-29T06:57:55.585Z,27.17
2023-01-29T07:00:25.733Z,39.13
2023-01-29T07:02:54.216Z,38.57
2023-01-29T07:05:23.416Z,34.93
2023-01-29T07:07:52.146Z,37.57
2023-01-29T07:10:20.760Z,36.73
2023-01-29T07:12:49.318Z,39.93
2023-01-29T07:15:20.722Z,38.10
2023-01-29T07:18:00.153Z,35.90
2023-01-29T07:20:29.290Z,37.90
2023-01-29T07:22:59.360Z,45.33
2023-01-29T07:25:28.101Z,43.90
2023-01-29T07:27:58.704Z,39.37
2023-01-29T07:30:28.743Z,42.30
2023-01-29T07:32:57.445Z,35.27
2023-01-29T07:35:27.623Z,36.27
2023-01-29T07:37:56.071Z,39.17
2023-01-29T07:40:24.570Z,45.53
2023-01-29T07:42:53.229Z,36.47
2023-01-29T07:45:21.721Z,38.17
2023-01-29T07:47:54.474Z,42.73
2023-01-29T07:50:23.133Z,35.17
2023-01-29T07:52:52.933Z,34.83
2023-01-29T07:55:21.508Z,33.63
2023-01-29T07:57:49.932Z,33.67
2023-01-29T08:00:19.349Z,31.50
2023-01-29T08:02:48.497Z,38.57
2023-01-29T08:05:16.969Z,40.53
2023-01-29T08:07:51.473Z,33.80
2023-01-29T08:10:27.636Z,40.77
2023-01-29T08:12:57.763Z,35.30
2023-01-29T08:15:26.917Z,34.43
2023-01-29T08:17:58.323Z,35.57
2023-01-29T08:20:27.718Z,35.23
2023-01-29T08:23:00.688Z,37.43
2023-01-29T08:25:31.961Z,37.33
2023-01-29T08:28:01.258Z,42.10
2023-01-29T08:30:30.453Z,40.93
2023-01-29T08:32:58.976Z,40.03
2023-01-29T08:35:27.881Z,35.83
2023-01-29T08:37:56.720Z,32.53
2023-01-29T08:40:26.103Z,37.60
2023-01-29T08:43:02.101Z,33.70
2023-01-29T08:45:31.598Z,39.27
2023-01-29T08:48:00.414Z,32.80
2023-01-29T08:50:30.953Z,37.13
2023-01-29T08:53:00.006Z,34.67
2023-01-29T08:55:28.762Z,34.23
2023-01-29T08:57:58.572Z,32.67
2023-01-29T09:00:27.115Z,32.73
2023-01-29T09:02:55.545Z,33.83
2023-01-29T09:05:24.157Z,37.07
2023-01-29T09:07:54.264Z,32.47
2023-01-29T09:10:22.793Z,39.73
2023-01-29T09:12:51.834Z,32.80
2023-01-29T09:15:22.221Z,32.03
2023-01-29T09:17:56.728Z,35.60
2023-01-29T09:20:25.413Z,28.73
2023-01-29T09:22:56.717Z,33.40
2023-01-29T09:25:25.280Z,35.30
2023-01-29T09:27:53.837Z,35.00
2023-01-29T09:30:23.822Z,39.60
2023-01-29T09:32:54.126Z,31.90
2023-01-29T09:35:23.455Z,30.27
2023-01-29T09:37:52.482Z,30.67
2023-01-29T09:40:26.812Z,32.40
2023-01-29T09:42:57.896Z,28.27
2023-01-29T09:45:29.053Z,27.37
2023-01-29T09:48:00.380Z,32.60
2023-01-29T09:50:31.460Z,26.80
2023-01-29T09:53:02.927Z,25.77
2023-01-29T09:55:35.273Z,27.30
2023-01-29T09:58:07.664Z,26.87
2023-01-29T10:00:39.999Z,32.57
2023-01-29T10:03:17.361Z,35.43
2023-01-29T10:05:51.613Z,28.50
2023-01-29T10:08:44.046Z,32.77
2023-01-29T10:11:19.658Z,31.70
2023-01-29T10:13:51.256Z,30.27
2023-01-29T10:16:32.635Z,28.03
2023-01-29T10:19:04.954Z,31.33
2023-01-29T10:21:40.041Z,33.00
2023-01-29T10:24:15.174Z,29.10
2023-01-29T10:26:44.946Z,31.30
2023-01-29T10:29:16.420Z,30.13
2023-01-29T10:31:48.060Z,42.90
2023-01-29T10:34:21.277Z,34.73
2023-01-29T10:36:50.827Z,32.50
2023-01-29T10:39:20.628Z,27.10
2023-01-29T10:42:00.274Z,32.80
2023-01-29T10:44:36.856Z,19.83
2023-01-29T10:47:13.713Z,26.20
2023-01-29T10:49:54.458Z,27.63
2023-01-29T10:52:30.365Z,30.73
2023-01-29T10:55:04.766Z,32.67
2023-01-29T10:57:42.466Z,28.70
2023-01-29T11:00:13.316Z,30.10
2023-01-29T11:02:48.654Z,28.93
2023-01-29T11:05:22.304Z,25.93
2023-01-29T11:07:51.732Z,23.00
2023-01-29T11:10:23.097Z,25.33
2023-01-29T11:12:52.011Z,27.37
2023-01-29T11:15:21.862Z,28.20
2023-01-29T11:18:11.617Z,36.57
2023-01-29T11:20:42.410Z,27.60
2023-01-29T11:23:25.175Z,31.97
2023-01-29T11:25:54.947Z,27.00
2023-01-29T11:28:38.237Z,28.30
2023-01-29T11:31:17.158Z,27.80
2023-01-29T11:33:46.777Z,28.40
2023-01-29T11:36:32.890Z,28.53
2023-01-29T11:39:19.662Z,29.07
2023-01-29T11:41:52.568Z,29.10
2023-01-29T11:44:28.899Z,30.93
2023-01-29T11:46:58.747Z,23.70
2023-01-29T11:49:32.201Z,26.33
2023-01-29T11:52:03.283Z,27.23
2023-01-29T11:54:35.005Z,33.23
2023-01-29T11:57:04.615Z,33.17
2023-01-29T11:59:45.282Z,27.70
2023-01-29T12:02:21.892Z,29.80
2023-01-29T12:04:50.558Z,28.73
2023-01-29T12:07:21.629Z,20.70
2023-01-29T12:09:52.031Z,28.03
2023-01-29T12:12:30.104Z,30.27
2023-01-29T12:15:05.264Z,27.57
2023-01-29T12:17:35.408Z,30.13
2023-01-29T12:20:07.286Z,18.40
2023-01-29T12:22:41.988Z,31.27
2023-01-29T12:25:21.520Z,24.97
2023-01-29T12:27:53.652Z,29.60
2023-01-29T12:30:25.545Z,27.77
2023-01-29T12:32:59.841Z,25.80
2023-01-29T12:35:30.756Z,28.33
2023-01-29T12:38:03.201Z,24.93
2023-01-29T12:40:33.546Z,26.67
2023-01-29T12:43:06.632Z,23.97
2023-01-29T12:45:37.044Z,25.17
2023-01-29T12:48:08.356Z,27.33
2023-01-29T12:50:39.700Z,23.23
2023-01-29T12:53:17.946Z,28.93
2023-01-29T12:55:48.018Z,24.43
2023-01-29T12:58:18.055Z,25.03
2023-01-29T13:00:48.551Z,22.43
2023-01-29T13:03:21.497Z,22.87
2023-01-29T13:05:52.342Z,21.43
2023-01-29T13:08:24.161Z,20.80
2023-01-29T13:10:53.753Z,25.80
2023-01-29T13:13:26.808Z,26.57
2023-01-29T13:15:55.915Z,22.87
2023-01-29T13:18:42.651Z,26.03
2023-01-29T13:21:15.637Z,22.10
2023-01-29T13:23:48.208Z,26.67
2023-01-29T13:26:20.167Z,17.03
2023-01-29T13:28:50.421Z,21.60
2023-01-29T13:31:32.942Z,24.10
2023-01-29T13:34:06.757Z,26.23
2023-01-29T13:36:35.843Z,20.30
2023-01-29T13:39:08.273Z,29.00
2023-01-29T13:41:38.090Z,30.20
2023-01-29T13:44:11.611Z,27.03
2023-01-29T13:46:42.919Z,24.47
2023-01-29T13:49:25.183Z,25.17
2023-01-29T13:51:54.933Z,23.47
2023-01-29T13:54:26.485Z,27.50
2023-01-29T13:57:02.396Z,19.47
2023-01-29T13:59:49.945Z,30.47
2023-01-29T14:02:27.014Z,24.53
2023-01-29T14:05:11.562Z,25.43
2023-01-29T14:07:42.033Z,25.90
2023-01-29T14:10:19.444Z,25.63
2023-01-29T14:12:49.490Z,28.90
2023-01-29T14:15:23.587Z,27.33
2023-01-29T14:18:15.655Z,28.77
2023-01-29T14:20:52.728Z,23.00
2023-01-29T14:23:30.096Z,24.57
2023-01-29T14:26:01.639Z,30.53
2023-01-29T14:28:32.045Z,22.07
2023-01-29T14:31:02.389Z,23.43
2023-01-29T14:33:36.100Z,23.33
2023-01-29T14:36:12.225Z,21.03
2023-01-29T14:38:42.343Z,23.33
2023-01-29T14:41:29.249Z,22.73
2023-01-29T14:44:35.487Z,22.67
2023-01-29T14:47:19.524Z,19.93
2023-01-29T14:49:52.140Z,20.40
2023-01-29T14:52:22.489Z,19.37
2023-01-29T14:54:52.642Z,22.33
2023-01-29T14:57:23.816Z,23.67
2023-01-29T14:59:56.780Z,25.73
2023-01-29T15:02:27.885Z,19.77
2023-01-29T15:04:58.365Z,15.10
2023-01-29T15:07:30.282Z,23.20
2023-01-29T15:10:21.093Z,18.27
2023-01-29T15:12:51.454Z,18.43
2023-01-29T15:15:22.663Z,21.93
2023-01-29T15:17:54.319Z,22.00
2023-01-29T15:20:28.417Z,18.23
2023-01-29T15:22:57.074Z,16.50
2023-01-29T15:25:26.000Z,16.77
2023-01-29T15:27:56.837Z,19.77
2023-01-29T15:30:28.070Z,18.67
2023-01-29T15:32:56.797Z,18.27
2023-01-29T15:35:29.592Z,23.27
2023-01-29T15:38:02.493Z,22.43
2023-01-29T15:40:31.991Z,20.37
2023-01-29T15:43:02.160Z,22.03
2023-01-29T15:45:32.217Z,18.70
2023-01-29T15:48:04.620Z,20.77
2023-01-29T15:50:34.670Z,17.93
2023-01-29T15:53:05.209Z,19.07
2023-01-29T15:55:34.610Z,21.63
2023-01-29T15:58:04.808Z,26.70
2023-01-29T16:00:33.538Z,21.13
2023-01-29T16:03:02.258Z,20.03
2023-01-29T16:05:33.187Z,17.83
2023-01-29T16:08:02.439Z,20.40
2023-01-29T16:10:32.534Z,16.30
2023-01-29T16:13:01.979Z,22.97
2023-01-29T16:15:32.891Z,26.37
2023-01-29T16:18:02.459Z,19.97
2023-01-29T16:20:35.363Z,19.37
2023-01-29T16:23:04.089Z,11.77
2023-01-29T16:25:32.590Z,19.10
2023-01-29T16:28:05.053Z,22.37
2023-01-29T16:30:35.423Z,17.40
2023-01-29T16:33:05.310Z,19.03
2023-01-29T16:35:34.816Z,13.00
2023-01-29T16:38:05.917Z,19.83
2023-01-29T16:40:35.791Z,15.97
2023-01-29T16:43:19.308Z,13.47
2023-01-29T16:46:03.643Z,20.03
2023-01-29T16:48:34.056Z,17.50
2023-01-29T16:51:06.490Z,16.13
2023-01-29T16:53:37.552Z,15.63
2023-01-29T16:56:07.873Z,16.47
2023-01-29T16:58:37.346Z,22.40
2023-01-29T17:01:09.677Z,16.33
2023-01-29T17:03:41.863Z,16.60
2023-01-29T17:06:11.014Z,16.83
2023-01-29T17:08:40.183Z,25.13
2023-01-29T17:11:10.201Z,15.50
2023-01-29T17:13:40.185Z,16.57
2023-01-29T17:16:18.409Z,16.97
2023-01-29T17:18:47.057Z,17.63
2023-01-29T17:21:16.053Z,14.83
2023-01-29T17:23:44.636Z,20.00
2023-01-29T17:26:14.804Z,15.33
2023-01-29T17:28:44.034Z,11.30
2023-01-29T17:31:13.046Z,13.23
2023-01-29T17:33:44.271Z,15.63
2023-01-29T17:36:14.495Z,16.57
2023-01-29T17:38:43.329Z,20.20
2023-01-29T17:41:15.252Z,18.87
2023-01-29T17:43:44.320Z,18.80
2023-01-29T17:46:15.821Z,26.80
2023-01-29T17:48:46.366Z,23.40
2023-01-29T17:51:15.835Z,24.00
2023-01-29T17:53:46.236Z,28.77
2023-01-29T17:56:27.848Z,23.90
2023-01-29T17:58:56.456Z,18.27
2023-01-29T18:01:26.001Z,23.30
2023-01-29T18:03:55.876Z,25.23
2023-01-29T18:06:30.870Z,21.60
2023-01-29T18:08:59.649Z,22.40
2023-01-29T18:11:28.810Z,24.30
2023-01-29T18:13:58.733Z,21.73
2023-01-29T18:16:36.789Z,24.97
2023-01-29T18:19:12.122Z,24.50
2023-01-29T18:21:40.502Z,14.80
2023-01-29T18:24:10.434Z,24.77
2023-01-29T18:26:39.053Z,20.13
2023-01-29T18:29:07.830Z,20.80
2023-01-29T18:31:36.825Z,21.20
2023-01-29T18:34:07.009Z,24.50
2023-01-29T18:36:35.632Z,27.27
2023-01-29T18:39:06.343Z,22.13
2023-01-29T18:41:35.512Z,18.97
2023-01-29T18:44:05.539Z,20.80
2023-01-29T18:46:34.349Z,23.70
2023-01-29T18:49:03.103Z,11.40
2023-01-29T18:51:33.088Z,23.07
2023-01-29T18:54:01.618Z,17.70
2023-01-29T18:56:29.991Z,22.43
2023-01-29T18:58:58.642Z,16.40
2023-01-29T19:01:27.804Z,19.50
2023-01-29T19:03:56.665Z,15.43
2023-01-29T19:06:25.135Z,14.43
2023-01-29T19:08:55.840Z,15.40
2023-01-29T19:11:24.215Z,16.43
2023-01-29T19:13:52.727Z,18.93
2023-01-29T19:16:21.744Z,14.83
2023-01-29T19:18:50.441Z,17.43
2023-01-29T19:21:19.165Z,20.57
2023-01-29T19:23:47.981Z,16.10
2023-01-29T19:26:17.862Z,15.70
2023-01-29T19:28:46.346Z,14.53
2023-01-29T19:31:14.863Z,17.37
2023-01-29T19:33:43.488Z,16.83
2023-01-29T19:36:13.647Z,17.60
2023-01-29T19:38:43.416Z,10.10
2023-01-29T19:41:12.106Z,17.00
2023-01-29T19:43:43.166Z,22.33
2023-01-29T19:46:11.987Z,17.57
2023-01-29T19:48:40.747Z,16.43
2023-01-29T19:51:10.171Z,14.23
2023-01-29T19:53:39.268Z,15.40
2023-01-29T19:56:08.701Z,14.50
2023-01-29T19:58:37.234Z,14.17
2023-01-29T20:01:08.344Z,17.77
2023-01-29T20:03:38.910Z,18.47
2023-01-29T20:06:08.671Z,17.37
2023-01-29T20:08:37.622Z,16.43
2023-01-29T20:11:07.046Z,17.00
2023-01-29T20:13:35.651Z,17.70
2023-01-29T20:16:05.475Z,20.03
2023-01-29T20:18:35.844Z,16.27
2023-01-29T20:21:08.135Z,13.97
2023-01-29T20:23:38.729Z,17.43
2023-01-29T20:26:09.216Z,13.30
2023-01-29T20:28:37.929Z,15.43
2023-01-29T20:31:07.242Z,11.60
2023-01-29T20:33:39.546Z,15.57
2023-01-29T20:36:10.057Z,14.30
2023-01-29T20:38:38.842Z,13.93
2023-01-29T20:41:08.417Z,15.87
2023-01-29T20:43:38.755Z,20.77
2023-01-29T20:46:07.881Z,17.10
2023-01-29T20:48:38.113Z,15.57
2023-01-29T20:51:09.369Z,10.90
2023-01-29T20:53:38.179Z,18.83
2023-01-29T20:56:07.360Z,13.17
2023-01-29T20:58:36.220Z,13.27
2023-01-29T21:01:09.085Z,17.17
2023-01-29T21:03:39.748Z,9.90
2023-01-29T21:06:09.167Z,10.43
2023-01-29T21:08:38.298Z,13.03
2023-01-29T21:11:07.683Z,6.93
2023-01-29T21:13:36.136Z,13.53
2023-01-29T21:16:04.738Z,11.70
2023-01-29T21:18:33.588Z,18.20
2023-01-29T21:21:03.674Z,19.20
2023-01-29T21:23:32.403Z,8.87
2023-01-29T21:26:07.096Z,16.80
2023-01-29T21:28:35.793Z,14.07
2023-01-29T21:31:05.217Z,15.37
2023-01-29T21:33:34.455Z,14.77
2023-01-29T21:36:04.732Z,17.03
2023-01-29T21:38:33.261Z,11.87
2023-01-29T21:41:02.191Z,11.93
2023-01-29T21:43:30.119Z,13.83
2023-01-29T21:45:59.704Z,17.13
2023-01-29T21:48:28.863Z,15.20
2023-01-29T21:50:57.407Z,21.93
2023-01-29T21:53:27.242Z,15.67
2023-01-29T21:56:00.763Z,20.27
2023-01-29T21:58:29.391Z,13.87
2023-01-29T22:01:35.876Z,16.50
2023-01-29T22:03:47.568Z,16.90
2023-01-29T22:06:16.260Z,16.80
2023-01-29T22:08:46.209Z,15.90
2023-01-29T22:11:15.056Z,21.23
2023-01-29T22:13:43.571Z,17.47
2023-01-29T22:16:12.183Z,22.90
2023-01-29T22:18:40.769Z,17.77
2023-01-29T22:21:09.284Z,22.27
2023-01-29T22:23:38.241Z,18.17
2023-01-29T22:26:10.094Z,20.50
2023-01-29T22:28:38.997Z,18.10
2023-01-29T22:31:07.683Z,18.23
2023-01-29T22:33:36.428Z,18.37
2023-01-29T22:36:05.241Z,15.37
2023-01-29T22:38:33.916Z,19.97
2023-01-29T22:41:02.570Z,18.70
2023-01-29T22:43:32.831Z,20.53
2023-01-29T22:46:01.371Z,19.10
2023-01-29T22:48:30.772Z,24.60
2023-01-29T22:51:09.726Z,23.17
2023-01-29T22:53:38.872Z,25.50
2023-01-29T22:56:08.042Z,18.37
2023-01-29T22:58:38.026Z,19.80
2023-01-29T23:01:07.082Z,22.80
2023-01-29T23:03:36.163Z,23.47
2023-01-29T23:06:04.668Z,22.57
2023-01-29T23:08:34.645Z,21.37
2023-01-29T23:11:14.200Z,21.10
2023-01-29T23:13:45.216Z,24.27
2023-01-29T23:16:13.914Z,21.63
2023-01-29T23:18:42.523Z,22.07
2023-01-29T23:21:11.530Z,21.23
2023-01-29T23:23:45.023Z,20.43
2023-01-29T23:26:30.818Z,19.37
2023-01-29T23:29:01.247Z,25.10
2023-01-29T23:31:29.875Z,22.83
2023-01-29T23:33:58.492Z,22.77
2023-01-29T23:36:27.779Z,26.27
2023-01-29T23:38:56.266Z,20.07
2023-01-29T23:41:25.056Z,22.70
2023-01-29T23:43:54.398Z,30.47
2023-01-29T23:46:24.546Z,24.60
2023-01-29T23:48:53.097Z,14.70
2023-01-29T23:51:21.559Z,17.20
2023-01-29T23:53:50.164Z,22.57
2023-01-29T23:56:18.990Z,21.30
2023-01-29T23:58:48.067Z,21.10
